createdAt,value
2019-02-28T00:01:17.741Z,19.20
2019-02-28T00:03:46.297Z,19.10
2019-02-28T00:06:14.821Z,19.20
2019-02-28T00:08:43.349Z,18.63
2019-02-28T00:11:11.909Z,19.57
2019-02-28T00:13:40.417Z,19.60
2019-02-28T00:16:08.922Z,21.80
2019-02-28T00:18:37.825Z,22.93
2019-02-28T00:21:07.150Z,22.67
2019-02-28T00:23:35.645Z,22.33
2019-02-28T00:26:04.865Z,23.80
2019-02-28T00:28:34.245Z,26.25
2019-02-28T00:31:02.770Z,23.92
2019-02-28T00:33:31.657Z,26.00
2019-02-28T00:35:59.796Z,24.77
2019-02-28T00:38:29.624Z,22.97
2019-02-28T00:40:57.129Z,24.80
2019-02-28T00:43:25.814Z,26.53
2019-02-28T00:45:55.390Z,22.30
2019-02-28T00:48:23.885Z,23.02
2019-02-28T00:50:52.651Z,23.73
2019-02-28T00:53:21.365Z,25.27
2019-02-28T00:55:49.869Z,26.30
2019-02-28T00:58:18.377Z,26.13
2019-02-28T01:00:46.865Z,25.93
2019-02-28T01:03:15.321Z,25.17
2019-02-28T01:05:43.797Z,24.20
2019-02-28T01:08:12.623Z,22.57
2019-02-28T01:10:41.349Z,21.10
2019-02-28T01:13:09.840Z,22.80
2019-02-28T01:15:44.496Z,21.60
2019-02-28T01:18:07.177Z,21.40
2019-02-28T01:20:35.661Z,22.00
2019-02-28T01:23:04.978Z,20.80
2019-02-28T01:25:33.694Z,21.23
2019-02-28T01:28:02.192Z,22.87
2019-02-28T01:30:31.436Z,21.43
2019-02-28T01:32:59.932Z,21.00
2019-02-28T01:35:28.405Z,21.83
2019-02-28T01:37:56.912Z,20.13
2019-02-28T01:40:25.376Z,20.70
2019-02-28T01:42:55.014Z,19.50
2019-02-28T01:45:22.432Z,18.93
2019-02-28T01:47:51.721Z,19.03
2019-02-28T01:50:19.504Z,19.23
2019-02-28T01:52:48.005Z,19.03
2019-02-28T01:55:16.484Z,19.40
2019-02-28T01:57:45.684Z,20.17
2019-02-28T02:00:15.104Z,19.97
2019-02-28T02:02:44.181Z,19.07
2019-02-28T02:05:13.064Z,19.33
2019-02-28T02:07:41.592Z,19.10
2019-02-28T02:10:17.608Z,19.97
2019-02-28T02:12:44.988Z,19.73
2019-02-28T02:15:16.857Z,20.10
2019-02-28T02:17:42.072Z,20.10
2019-02-28T02:20:10.600Z,19.73
2019-02-28T02:22:40.618Z,18.97
2019-02-28T02:25:07.944Z,19.80
2019-02-28T02:27:36.412Z,19.07
2019-02-28T02:30:13.627Z,18.80
2019-02-28T02:32:38.735Z,20.57
2019-02-28T02:35:08.136Z,17.90
2019-02-28T02:37:31.508Z,19.47
2019-02-28T02:39:59.909Z,18.40
2019-02-28T02:42:28.373Z,18.23
2019-02-28T02:44:57.421Z,18.53
2019-02-28T02:47:31.371Z,17.73
2019-02-28T02:49:57.577Z,19.37
2019-02-28T02:52:29.957Z,18.80
2019-02-28T02:54:53.116Z,18.20
2019-02-28T02:57:20.961Z,18.15
2019-02-28T02:59:49.443Z,18.23
2019-02-28T03:02:17.920Z,17.90
2019-02-28T03:04:46.643Z,19.60
2019-02-28T03:07:22.942Z,17.60
2019-02-28T03:09:44.761Z,16.63
2019-02-28T03:12:12.392Z,18.20
2019-02-28T03:14:41.193Z,18.20
2019-02-28T03:17:11.464Z,16.12
2019-02-28T03:19:38.421Z,17.73
2019-02-28T03:22:07.364Z,18.37
2019-02-28T03:24:35.850Z,16.80
2019-02-28T03:27:04.739Z,17.57
2019-02-28T03:29:33.239Z,13.90
2019-02-28T03:32:01.746Z,14.27
2019-02-28T03:34:30.905Z,14.03
2019-02-28T03:36:59.448Z,14.70
2019-02-28T03:39:28.540Z,15.83
2019-02-28T03:41:57.587Z,15.47
2019-02-28T03:44:26.084Z,14.73
2019-02-28T03:46:54.535Z,16.13
2019-02-28T03:49:23.036Z,15.75
2019-02-28T03:51:51.512Z,14.50
2019-02-28T03:54:20.224Z,15.08
2019-02-28T03:56:52.773Z,14.57
2019-02-28T03:59:18.973Z,15.47
2019-02-28T04:01:46.704Z,15.37
2019-02-28T04:04:15.411Z,14.23
2019-02-28T04:06:43.940Z,15.95
2019-02-28T04:09:12.744Z,13.90
2019-02-28T04:11:41.230Z,15.17
2019-02-28T04:14:09.703Z,16.30
2019-02-28T04:16:38.236Z,14.58
2019-02-28T04:19:06.745Z,15.63
2019-02-28T04:21:35.483Z,15.50
2019-02-28T04:24:12.650Z,15.23
2019-02-28T04:26:33.607Z,14.97
2019-02-28T04:29:02.087Z,15.53
2019-02-28T04:31:30.586Z,14.58
2019-02-28T04:33:59.083Z,15.57
2019-02-28T04:36:27.603Z,15.83
2019-02-28T04:38:56.477Z,14.47
2019-02-28T04:41:24.938Z,15.15
2019-02-28T04:43:53.395Z,15.23
2019-02-28T04:46:22.443Z,16.13
2019-02-28T04:48:50.903Z,15.43
2019-02-28T04:51:19.355Z,16.13
2019-02-28T04:53:52.520Z,14.87
2019-02-28T04:56:17.475Z,15.50
2019-02-28T04:58:45.997Z,16.17
2019-02-28T05:01:14.479Z,16.60
2019-02-28T05:03:42.968Z,18.80
2019-02-28T05:06:11.774Z,19.33
2019-02-28T05:08:40.251Z,20.40
2019-02-28T05:11:08.695Z,19.93
2019-02-28T05:13:37.395Z,20.70
2019-02-28T05:16:05.862Z,21.37
2019-02-28T05:18:34.755Z,22.63
2019-02-28T05:21:03.224Z,26.83
2019-02-28T05:23:35.785Z,23.53
2019-02-28T05:26:00.498Z,20.77
2019-02-28T05:28:29.062Z,19.87
2019-02-28T05:30:57.571Z,19.97
2019-02-28T05:33:26.043Z,20.90
2019-02-28T05:35:57.260Z,19.40
2019-02-28T05:38:23.086Z,19.37
2019-02-28T05:40:51.584Z,18.67
2019-02-28T05:43:20.050Z,18.87
2019-02-28T05:45:49.574Z,19.90
2019-02-28T05:48:17.162Z,19.73
2019-02-28T05:50:46.920Z,17.33
2019-02-28T05:53:14.842Z,18.20
2019-02-28T05:55:43.670Z,18.63
2019-02-28T05:58:17.248Z,17.87
2019-02-28T06:00:40.923Z,19.32
2019-02-28T06:03:09.530Z,18.70
2019-02-28T06:05:38.980Z,20.43
2019-02-28T06:08:06.715Z,19.60
2019-02-28T06:10:35.237Z,19.03
2019-02-28T06:13:04.958Z,20.97
2019-02-28T06:15:34.195Z,21.63
2019-02-28T06:18:02.090Z,22.60
2019-02-28T06:20:30.670Z,23.27
2019-02-28T06:22:59.722Z,25.13
2019-02-28T06:25:28.558Z,25.33
2019-02-28T06:27:57.125Z,24.10
2019-02-28T06:30:27.664Z,23.15
2019-02-28T06:32:57.807Z,23.93
2019-02-28T06:35:23.403Z,24.17
2019-02-28T06:37:59.106Z,25.13
2019-02-28T06:40:32.815Z,26.00
2019-02-28T06:42:56.478Z,24.73
2019-02-28T06:45:36.748Z,27.42
2019-02-28T06:48:02.907Z,23.65
2019-02-28T06:50:31.537Z,24.72
2019-02-28T06:53:00.034Z,27.00
2019-02-28T06:55:28.999Z,26.47
2019-02-28T06:57:58.985Z,26.40
2019-02-28T07:00:26.103Z,26.10
2019-02-28T07:02:55.268Z,26.20
2019-02-28T07:05:25.761Z,27.90
2019-02-28T07:07:52.943Z,28.20
2019-02-28T07:10:22.253Z,27.13
2019-02-28T07:13:05.465Z,27.80
2019-02-28T07:15:32.879Z,28.50
2019-02-28T07:18:02.941Z,27.13
2019-02-28T07:20:35.113Z,27.10
2019-02-28T07:23:00.117Z,27.13
2019-02-28T07:25:28.878Z,29.40
2019-02-28T07:27:57.421Z,31.03
2019-02-28T07:30:26.009Z,33.13
2019-02-28T07:32:54.529Z,41.77
2019-02-28T07:35:23.074Z,47.27
2019-02-28T07:37:54.395Z,48.25
2019-02-28T07:40:20.777Z,45.00
2019-02-28T07:42:49.261Z,40.43
2019-02-28T07:45:17.859Z,38.10
2019-02-28T07:47:51.622Z,36.93
2019-02-28T07:50:15.066Z,39.53
2019-02-28T07:52:43.582Z,39.63
2019-02-28T07:55:12.575Z,40.53
2019-02-28T07:57:41.625Z,42.47
2019-02-28T08:00:17.557Z,40.90
2019-02-28T08:02:42.157Z,44.60
2019-02-28T08:05:10.781Z,43.52
2019-02-28T08:07:39.318Z,44.67
2019-02-28T08:10:12.707Z,44.43
2019-02-28T08:12:39.055Z,43.53
2019-02-28T08:15:10.202Z,45.17
2019-02-28T08:17:40.578Z,44.50
2019-02-28T08:20:07.381Z,44.43
2019-02-28T08:22:35.967Z,46.58
2019-02-28T08:25:07.832Z,42.97
2019-02-28T08:27:33.874Z,44.03
2019-02-28T08:30:02.370Z,45.58
2019-02-28T08:32:31.006Z,47.20
2019-02-28T08:35:00.029Z,43.08
2019-02-28T08:37:28.885Z,42.73
2019-02-28T08:39:57.433Z,41.60
2019-02-28T08:42:25.993Z,42.27
2019-02-28T08:44:57.795Z,39.60
2019-02-28T08:47:23.387Z,40.70
2019-02-28T08:49:51.953Z,46.68
2019-02-28T08:52:20.781Z,40.73
2019-02-28T08:54:49.261Z,40.17
2019-02-28T08:57:18.045Z,39.48
2019-02-28T08:59:46.589Z,38.17
2019-02-28T09:02:18.329Z,37.40
2019-02-28T09:04:44.909Z,37.93
2019-02-28T09:07:14.889Z,35.78
2019-02-28T09:09:41.421Z,39.08
2019-02-28T09:12:09.969Z,35.28
2019-02-28T09:14:38.448Z,32.80
2019-02-28T09:17:07.233Z,34.80
2019-02-28T09:19:36.746Z,34.90
2019-02-28T09:22:05.573Z,34.10
2019-02-28T09:24:34.108Z,31.42
2019-02-28T09:27:04.131Z,28.73
2019-02-28T09:29:31.572Z,30.45
2019-02-28T09:32:00.076Z,30.27
2019-02-28T09:34:30.673Z,27.98
2019-02-28T09:36:57.156Z,26.73
2019-02-28T09:39:25.668Z,28.98
2019-02-28T09:41:54.196Z,30.30
2019-02-28T09:44:22.677Z,27.65
2019-02-28T09:46:51.679Z,28.10
2019-02-28T09:49:20.172Z,25.80
2019-02-28T09:51:48.737Z,25.20
2019-02-28T09:54:18.369Z,24.02
2019-02-28T09:56:46.992Z,23.27
2019-02-28T09:59:16.184Z,23.22
2019-02-28T10:01:44.800Z,22.05
2019-02-28T10:04:13.288Z,22.42
2019-02-28T10:06:42.097Z,22.13
2019-02-28T10:09:10.918Z,22.85
2019-02-28T10:11:40.536Z,22.40
2019-02-28T10:14:08.141Z,22.73
2019-02-28T10:16:36.825Z,23.52
2019-02-28T10:19:05.345Z,21.37
2019-02-28T10:21:36.449Z,18.55
2019-02-28T10:24:02.864Z,19.57
2019-02-28T10:26:31.369Z,18.48
2019-02-28T10:29:01.213Z,19.35
2019-02-28T10:31:35.373Z,17.15
2019-02-28T10:33:57.370Z,15.35
2019-02-28T10:36:26.768Z,16.12
2019-02-28T10:38:55.544Z,16.45
2019-02-28T10:41:24.208Z,19.23
2019-02-28T10:43:55.810Z,19.50
2019-02-28T10:46:21.892Z,15.43
2019-02-28T10:48:51.158Z,14.68
2019-02-28T10:51:19.264Z,15.53
2019-02-28T10:53:47.760Z,13.70
2019-02-28T10:56:16.975Z,12.90
2019-02-28T10:58:47.231Z,14.28
2019-02-28T11:01:14.664Z,12.90
2019-02-28T11:03:43.160Z,13.60
2019-02-28T11:06:12.428Z,12.55
2019-02-28T11:08:41.036Z,13.13
2019-02-28T11:11:10.426Z,13.90
2019-02-28T11:13:38.356Z,12.80
2019-02-28T11:16:06.987Z,12.15
2019-02-28T11:18:36.495Z,11.70
2019-02-28T11:21:04.636Z,9.08
2019-02-28T11:23:33.239Z,10.05
2019-02-28T11:26:02.443Z,10.00
2019-02-28T11:28:31.079Z,8.40
2019-02-28T11:30:59.755Z,7.65
2019-02-28T11:33:28.443Z,8.45
2019-02-28T11:35:59.132Z,7.72
2019-02-28T11:38:25.631Z,8.75
2019-02-28T11:40:57.328Z,8.43
2019-02-28T11:43:23.259Z,8.58
2019-02-28T11:45:51.751Z,8.90
2019-02-28T11:48:20.569Z,9.38
2019-02-28T11:50:49.331Z,9.05
2019-02-28T11:53:19.162Z,8.88
2019-02-28T11:55:47.247Z,6.60
2019-02-28T11:58:17.691Z,7.15
2019-02-28T12:00:44.348Z,6.78
2019-02-28T12:03:12.967Z,5.78
2019-02-28T12:05:41.811Z,7.05
2019-02-28T12:08:10.753Z,6.87
2019-02-28T12:10:39.323Z,6.30
2019-02-28T12:13:08.232Z,6.08
2019-02-28T12:16:16.318Z,6.10
2019-02-28T12:18:43.041Z,6.10
2019-02-28T12:21:12.180Z,5.22
2019-02-28T12:23:40.709Z,5.67
2019-02-28T12:26:09.319Z,4.87
2019-02-28T12:28:38.304Z,3.85
2019-02-28T12:31:06.800Z,5.30
2019-02-28T12:33:35.667Z,4.55
2019-02-28T12:36:04.887Z,4.60
2019-02-28T12:38:33.371Z,4.40
2019-02-28T12:41:01.971Z,4.35
2019-02-28T12:43:31.059Z,5.90
2019-02-28T12:45:59.962Z,5.03
2019-02-28T12:48:28.567Z,4.85
2019-02-28T12:50:57.142Z,3.95
2019-02-28T12:53:25.651Z,4.05
2019-02-28T12:55:54.116Z,3.47
2019-02-28T12:58:22.766Z,3.17
2019-02-28T13:00:51.296Z,3.42
2019-02-28T13:03:21.180Z,4.10
2019-02-28T13:05:49.496Z,3.10
2019-02-28T13:08:17.511Z,4.25
2019-02-28T13:10:46.331Z,4.62
2019-02-28T13:13:15.238Z,3.00
2019-02-28T13:15:45.583Z,2.70
2019-02-28T13:18:12.707Z,2.58
2019-02-28T13:20:41.191Z,2.50
2019-02-28T13:23:10.627Z,3.50
2019-02-28T13:25:39.542Z,2.72
2019-02-28T13:28:08.184Z,3.37
2019-02-28T13:30:39.875Z,2.60
2019-02-28T13:33:05.489Z,3.10
2019-02-28T13:35:34.488Z,3.12
2019-02-28T13:38:03.090Z,4.42
2019-02-28T13:40:31.895Z,3.72
2019-02-28T13:43:01.826Z,7.10
2019-02-28T13:45:29.658Z,8.35
2019-02-28T13:47:58.206Z,4.47
2019-02-28T13:50:27.179Z,3.45
2019-02-28T13:52:55.733Z,3.30
2019-02-28T13:55:24.580Z,4.00
2019-02-28T13:57:53.107Z,4.30
2019-02-28T14:00:23.538Z,4.72
2019-02-28T14:02:54.206Z,2.33
2019-02-28T14:05:23.038Z,2.17
2019-02-28T14:07:51.546Z,2.80
2019-02-28T14:10:20.130Z,2.97
2019-02-28T14:12:48.703Z,2.65
2019-02-28T14:15:19.310Z,2.43
2019-02-28T14:17:48.049Z,2.72
2019-02-28T14:20:16.777Z,2.37
2019-02-28T14:22:45.818Z,2.42
2019-02-28T14:25:14.609Z,2.63
2019-02-28T14:27:43.229Z,2.40
2019-02-28T14:30:12.693Z,2.05
2019-02-28T14:32:42.197Z,2.20
2019-02-28T14:35:10.277Z,2.98
2019-02-28T14:37:38.785Z,3.00
2019-02-28T14:40:10.129Z,2.42
2019-02-28T14:42:40.750Z,3.20
2019-02-28T14:45:09.553Z,3.12
2019-02-28T14:47:38.349Z,2.83
2019-02-28T14:50:07.701Z,3.80
2019-02-28T14:52:39.424Z,2.05
2019-02-28T14:55:05.953Z,2.45
2019-02-28T14:57:36.230Z,3.02
2019-02-28T15:00:07.240Z,1.98
2019-02-28T15:02:35.241Z,2.75
2019-02-28T15:05:03.925Z,2.70
2019-02-28T15:07:35.339Z,2.55
2019-02-28T15:10:01.676Z,2.87
2019-02-28T15:12:29.965Z,1.87
2019-02-28T15:14:58.481Z,2.08
2019-02-28T15:17:27.673Z,2.58
2019-02-28T15:19:57.953Z,3.47
2019-02-28T15:22:25.372Z,2.87
2019-02-28T15:24:54.391Z,3.70
2019-02-28T15:27:23.164Z,3.33
2019-02-28T15:29:51.713Z,3.17
2019-02-28T15:32:20.326Z,3.77
2019-02-28T15:34:48.881Z,3.45
2019-02-28T15:37:17.717Z,3.40
2019-02-28T15:39:49.855Z,2.58
2019-02-28T15:42:15.386Z,2.83
2019-02-28T15:44:43.858Z,2.77
2019-02-28T15:47:12.485Z,4.67
2019-02-28T15:49:42.441Z,4.28
2019-02-28T15:52:10.333Z,3.72
2019-02-28T15:54:39.181Z,3.55
2019-02-28T15:57:07.807Z,3.02
2019-02-28T15:59:36.283Z,4.23
2019-02-28T16:02:06.375Z,3.87
2019-02-28T16:04:33.849Z,4.45
2019-02-28T16:07:02.325Z,4.47
2019-02-28T16:09:30.840Z,3.70
2019-02-28T16:11:59.777Z,4.30
2019-02-28T16:14:28.277Z,4.47
2019-02-28T16:17:00.284Z,4.03
2019-02-28T16:19:26.397Z,4.60
2019-02-28T16:21:54.869Z,5.37
2019-02-28T16:24:23.506Z,5.03
2019-02-28T16:26:53.462Z,5.62
2019-02-28T16:30:23.321Z,5.10
2019-02-28T16:32:52.065Z,6.43
2019-02-28T16:35:20.587Z,7.22
2019-02-28T16:37:49.118Z,8.55
2019-02-28T16:40:20.778Z,9.20
2019-02-28T16:42:47.264Z,7.90
2019-02-28T16:45:24.018Z,8.20
2019-02-28T16:47:55.668Z,8.55
2019-02-28T16:50:21.400Z,8.97
2019-02-28T16:52:50.168Z,8.18
2019-02-28T16:55:18.757Z,11.00
2019-02-28T16:57:48.029Z,12.60
2019-02-28T17:00:16.256Z,9.90
2019-02-28T17:02:44.797Z,13.13
2019-02-28T17:05:13.414Z,13.53
2019-02-28T17:07:43.700Z,12.95
2019-02-28T17:10:13.304Z,12.07
2019-02-28T17:12:47.034Z,10.57
2019-02-28T17:15:23.203Z,12.30
2019-02-28T17:17:53.959Z,13.23
2019-02-28T17:20:22.447Z,13.28
2019-02-28T17:22:50.974Z,15.50
2019-02-28T17:25:21.629Z,13.08
2019-02-28T17:27:57.750Z,19.80
2019-02-28T17:30:32.869Z,16.00
2019-02-28T17:32:59.754Z,13.32
2019-02-28T17:35:30.672Z,12.33
2019-02-28T17:37:59.893Z,10.38
2019-02-28T17:40:26.216Z,9.90
2019-02-28T17:42:54.038Z,7.78
2019-02-28T17:45:25.766Z,9.50
2019-02-28T17:48:09.614Z,11.07
2019-02-28T17:51:44.197Z,10.48
2019-02-28T17:54:58.678Z,7.72
2019-02-28T17:59:45.351Z,8.33
2019-02-28T18:02:43.820Z,8.78
2019-02-28T18:05:45.131Z,7.90
2019-02-28T18:08:24.040Z,8.40
2019-02-28T18:12:11.282Z,8.90
2019-02-28T18:14:51.195Z,11.33
2019-02-28T18:17:33.409Z,11.83
2019-02-28T18:20:21.708Z,12.40
2019-02-28T18:23:06.698Z,14.03
2019-02-28T18:25:48.744Z,15.57
2019-02-28T18:28:26.010Z,12.63
2019-02-28T18:31:06.031Z,11.37
2019-02-28T18:33:34.840Z,13.53
2019-02-28T18:36:05.132Z,14.47
2019-02-28T18:38:35.749Z,14.57
2019-02-28T18:41:05.634Z,16.37
2019-02-28T18:43:30.480Z,17.23
2019-02-28T18:45:58.980Z,16.40
2019-02-28T18:48:27.466Z,16.43
2019-02-28T18:50:56.228Z,15.20
2019-02-28T18:53:25.400Z,15.73
2019-02-28T18:55:54.190Z,15.93
2019-02-28T18:58:22.864Z,13.60
2019-02-28T19:00:51.680Z,14.33
2019-02-28T19:03:20.261Z,13.93
2019-02-28T19:05:48.732Z,13.13
2019-02-28T19:08:17.472Z,13.57
2019-02-28T19:10:46.294Z,13.20
2019-02-28T19:13:14.751Z,12.87
2019-02-28T19:15:45.134Z,13.90
2019-02-28T19:18:12.132Z,16.23
2019-02-28T19:20:40.758Z,13.00
2019-02-28T19:23:09.632Z,12.10
2019-02-28T19:25:38.158Z,13.60
2019-02-28T19:28:06.741Z,14.20
2019-02-28T19:30:35.231Z,14.10
2019-02-28T19:33:04.501Z,14.60
2019-02-28T19:35:33.505Z,13.38
2019-02-28T19:38:02.256Z,13.13
2019-02-28T19:40:30.775Z,13.20
2019-02-28T19:42:59.228Z,13.70
2019-02-28T19:45:28.232Z,14.17
2019-02-28T19:47:56.753Z,15.13
2019-02-28T19:50:26.003Z,14.63
2019-02-28T19:52:54.517Z,15.27
2019-02-28T19:55:23.117Z,15.23
2019-02-28T19:57:51.878Z,16.00
2019-02-28T20:00:20.500Z,16.90
2019-02-28T20:02:49.284Z,17.73
2019-02-28T20:05:17.844Z,17.47
2019-02-28T20:07:46.335Z,20.53
2019-02-28T20:10:15.206Z,17.73
2019-02-28T20:12:44.231Z,16.67
2019-02-28T20:15:13.711Z,14.50
2019-02-28T20:17:42.539Z,15.40
2019-02-28T20:20:13.355Z,14.33
2019-02-28T20:22:41.867Z,16.57
2019-02-28T20:25:11.363Z,17.37
2019-02-28T20:27:39.919Z,15.67
2019-02-28T20:30:10.675Z,15.93
2019-02-28T20:32:39.587Z,16.67
2019-02-28T20:35:08.304Z,16.30
2019-02-28T20:37:36.819Z,18.27
2019-02-28T20:40:07.689Z,18.67
2019-02-28T20:42:36.208Z,16.93
2019-02-28T20:45:05.652Z,18.55
2019-02-28T20:47:34.381Z,17.13
2019-02-28T20:50:03.012Z,16.53
2019-02-28T20:52:31.502Z,16.73
2019-02-28T20:55:00.367Z,17.60
2019-02-28T20:57:28.740Z,17.10
2019-02-28T20:59:57.428Z,17.07
2019-02-28T21:02:26.560Z,16.57
2019-02-28T21:04:55.104Z,16.40
2019-02-28T21:07:23.576Z,16.50
2019-02-28T21:09:52.280Z,16.00
2019-02-28T21:12:20.884Z,16.50
2019-02-28T21:14:49.423Z,15.40
2019-02-28T21:17:18.007Z,16.20
2019-02-28T21:19:46.517Z,16.47
2019-02-28T21:22:15.114Z,17.00
2019-02-28T21:24:43.833Z,16.63
2019-02-28T21:28:15.166Z,15.80
2019-02-28T21:30:43.721Z,15.87
2019-02-28T21:33:15.745Z,15.98
2019-02-28T21:35:45.527Z,17.20
2019-02-28T21:38:16.959Z,16.45
2019-02-28T21:40:45.768Z,16.03
2019-02-28T21:43:14.224Z,16.77
2019-02-28T21:45:42.761Z,15.73
2019-02-28T21:48:11.828Z,16.37
2019-02-28T21:50:40.600Z,16.97
2019-02-28T21:53:10.582Z,15.83
2019-02-28T21:55:40.800Z,16.23
2019-02-28T21:58:09.319Z,16.53
2019-02-28T22:00:38.322Z,16.80
2019-02-28T22:03:07.822Z,15.43
2019-02-28T22:05:36.726Z,16.50
2019-02-28T22:08:05.420Z,14.63
2019-02-28T22:10:33.907Z,16.40
2019-02-28T22:13:02.389Z,16.10
2019-02-28T22:15:30.887Z,16.57
2019-02-28T22:17:59.689Z,16.50
2019-02-28T22:20:28.604Z,16.63
2019-02-28T22:22:57.144Z,14.90
2019-02-28T22:25:25.950Z,14.37
2019-02-28T22:27:54.408Z,13.90
2019-02-28T22:30:36.066Z,15.07
2019-02-28T22:33:06.546Z,15.67
2019-02-28T22:35:40.071Z,15.63
2019-02-28T22:38:08.530Z,14.93
2019-02-28T22:40:37.280Z,14.43
2019-02-28T22:43:05.939Z,14.13
2019-02-28T22:45:36.086Z,13.33
2019-02-28T22:48:04.670Z,13.60
2019-02-28T22:50:33.238Z,13.13
2019-02-28T22:53:01.702Z,12.40
2019-02-28T22:55:30.215Z,11.83
2019-02-28T22:57:58.663Z,11.30
2019-02-28T23:00:36.674Z,11.77
2019-02-28T23:03:05.259Z,13.57
2019-02-28T23:05:33.847Z,12.27
2019-02-28T23:08:02.709Z,15.50
2019-02-28T23:10:31.901Z,15.33
2019-02-28T23:13:00.399Z,16.37
2019-02-28T23:15:28.877Z,15.37
2019-02-28T23:17:57.371Z,15.10
2019-02-28T23:20:25.820Z,15.97
2019-02-28T23:22:54.336Z,17.20
2019-02-28T23:25:22.784Z,15.77
2019-02-28T23:27:51.544Z,13.08
2019-02-28T23:30:40.108Z,12.50
2019-02-28T23:33:12.944Z,12.60
2019-02-28T23:35:43.643Z,10.73
2019-02-28T23:38:12.499Z,11.00
2019-02-28T23:40:40.965Z,10.77
2019-02-28T23:43:10.478Z,11.23
2019-02-28T23:45:39.544Z,10.83
2019-02-28T23:48:08.287Z,10.30
2019-02-28T23:50:36.960Z,11.67
2019-02-28T23:53:05.908Z,10.60
2019-02-28T23:55:34.360Z,10.80
2019-02-28T23:58:03.128Z,11.50
